sensor_id;sensor_type;location;lat;lon;timestamp;P1;durP1;ratioP1;P2;durP2;ratioP2
38455;SDS011;24237;50.106;20.014;2023-09-19T00:01:39;19.95;;;13.48;;
38455;SDS011;24237;50.106;20.014;2023-09-19T00:04:11;20.73;;;14.05;;
38455;SDS011;24237;50.106;20.014;2023-09-19T00:06:37;20.05;;;13.15;;
38455;SDS011;24237;50.106;20.014;2023-09-19T00:09:03;26.58;;;13.88;;
38455;SDS011;24237;50.106;20.014;2023-09-19T00:11:29;31.95;;;14.20;;
38455;SDS011;24237;50.106;20.014;2023-09-19T00:13:56;24.08;;;14.48;;
38455;SDS011;24237;50.106;20.014;2023-09-19T00:16:24;22.05;;;13.90;;
38455;SDS011;24237;50.106;20.014;2023-09-19T00:18:50;18.53;;;13.57;;
38455;SDS011;24237;50.106;20.014;2023-09-19T00:21:17;27.20;;;13.27;;
38455;SDS011;24237;50.106;20.014;2023-09-19T00:23:44;18.20;;;12.38;;
38455;SDS011;24237;50.106;20.014;2023-09-19T00:26:10;21.00;;;12.98;;
38455;SDS011;24237;50.106;20.014;2023-09-19T00:28:35;19.05;;;12.70;;
38455;SDS011;24237;50.106;20.014;2023-09-19T00:31:01;19.10;;;13.05;;
38455;SDS011;24237;50.106;20.014;2023-09-19T00:33:27;30.08;;;13.80;;
38455;SDS011;24237;50.106;20.014;2023-09-19T00:35:54;19.67;;;13.43;;
38455;SDS011;24237;50.106;20.014;2023-09-19T00:38:24;19.90;;;13.23;;
38455;SDS011;24237;50.106;20.014;2023-09-19T00:40:52;21.80;;;13.73;;
38455;SDS011;24237;50.106;20.014;2023-09-19T00:43:19;21.35;;;13.70;;
38455;SDS011;24237;50.106;20.014;2023-09-19T00:45:47;19.63;;;14.13;;
38455;SDS011;24237;50.106;20.014;2023-09-19T00:48:16;26.27;;;13.35;;
38455;SDS011;24237;50.106;20.014;2023-09-19T00:50:45;22.75;;;12.88;;
38455;SDS011;24237;50.106;20.014;2023-09-19T00:53:13;21.83;;;13.18;;
38455;SDS011;24237;50.106;20.014;2023-09-19T00:55:43;24.77;;;13.77;;
38455;SDS011;24237;50.106;20.014;2023-09-19T00:58:10;23.52;;;14.10;;
38455;SDS011;24237;50.106;20.014;2023-09-19T01:00:36;25.02;;;13.63;;
38455;SDS011;24237;50.106;20.014;2023-09-19T01:03:02;20.75;;;12.95;;
38455;SDS011;24237;50.106;20.014;2023-09-19T01:05:28;22.55;;;13.13;;
38455;SDS011;24237;50.106;20.014;2023-09-19T01:07:57;23.13;;;14.38;;
38455;SDS011;24237;50.106;20.014;2023-09-19T01:10:23;23.20;;;14.07;;
38455;SDS011;24237;50.106;20.014;2023-09-19T01:12:55;24.05;;;14.25;;
38455;SDS011;24237;50.106;20.014;2023-09-19T01:32:13;24.35;;;14.88;;
38455;SDS011;24237;50.106;20.014;2023-09-19T01:37:15;25.85;;;16.17;;
38455;SDS011;24237;50.106;20.014;2023-09-19T01:39:55;26.20;;;17.20;;
38455;SDS011;24237;50.106;20.014;2023-09-19T01:48:38;24.42;;;17.40;;
38455;SDS011;24237;50.106;20.014;2023-09-19T01:51:13;36.20;;;18.85;;
38455;SDS011;24237;50.106;20.014;2023-09-19T01:56:40;24.65;;;16.70;;
38455;SDS011;24237;50.106;20.014;2023-09-19T01:59:22;28.45;;;17.67;;
38455;SDS011;24237;50.106;20.014;2023-09-19T02:01:52;29.52;;;17.08;;
38455;SDS011;24237;50.106;20.014;2023-09-19T02:04:19;25.35;;;16.80;;
38455;SDS011;24237;50.106;20.014;2023-09-19T02:06:45;25.00;;;17.23;;
38455;SDS011;24237;50.106;20.014;2023-09-19T02:09:12;32.08;;;17.55;;
38455;SDS011;24237;50.106;20.014;2023-09-19T02:11:42;20.65;;;15.80;;
38455;SDS011;24237;50.106;20.014;2023-09-19T02:14:07;24.17;;;16.58;;
38455;SDS011;24237;50.106;20.014;2023-09-19T02:16:34;18.67;;;15.00;;
38455;SDS011;24237;50.106;20.014;2023-09-19T02:19:00;22.88;;;16.25;;
38455;SDS011;24237;50.106;20.014;2023-09-19T02:21:30;23.50;;;16.35;;
38455;SDS011;24237;50.106;20.014;2023-09-19T02:23:56;25.30;;;16.45;;
38455;SDS011;24237;50.106;20.014;2023-09-19T02:26:21;21.15;;;15.43;;
38455;SDS011;24237;50.106;20.014;2023-09-19T02:28:58;22.10;;;14.65;;
38455;SDS011;24237;50.106;20.014;2023-09-19T02:31:24;23.20;;;15.48;;
38455;SDS011;24237;50.106;20.014;2023-09-19T02:33:50;20.15;;;15.65;;
38455;SDS011;24237;50.106;20.014;2023-09-19T02:36:15;20.98;;;14.48;;
38455;SDS011;24237;50.106;20.014;2023-09-19T02:38:42;25.00;;;15.57;;
38455;SDS011;24237;50.106;20.014;2023-09-19T02:41:07;19.55;;;14.35;;
38455;SDS011;24237;50.106;20.014;2023-09-19T02:43:33;24.70;;;16.10;;
38455;SDS011;24237;50.106;20.014;2023-09-19T02:45:59;29.35;;;17.40;;
38455;SDS011;24237;50.106;20.014;2023-09-19T02:48:25;22.13;;;15.73;;
38455;SDS011;24237;50.106;20.014;2023-09-19T02:50:50;24.63;;;17.92;;
38455;SDS011;24237;50.106;20.014;2023-09-19T02:53:16;29.25;;;18.00;;
38455;SDS011;24237;50.106;20.014;2023-09-19T02:55:42;26.33;;;18.33;;
38455;SDS011;24237;50.106;20.014;2023-09-19T02:58:08;26.85;;;17.30;;
38455;SDS011;24237;50.106;20.014;2023-09-19T03:00:36;28.08;;;18.25;;
38455;SDS011;24237;50.106;20.014;2023-09-19T03:03:02;24.25;;;17.25;;
38455;SDS011;24237;50.106;20.014;2023-09-19T03:05:28;25.45;;;17.20;;
38455;SDS011;24237;50.106;20.014;2023-09-19T03:07:57;31.40;;;18.25;;
38455;SDS011;24237;50.106;20.014;2023-09-19T03:10:25;29.73;;;18.48;;
38455;SDS011;24237;50.106;20.014;2023-09-19T03:12:51;30.48;;;16.35;;
38455;SDS011;24237;50.106;20.014;2023-09-19T03:15:17;31.70;;;18.67;;
38455;SDS011;24237;50.106;20.014;2023-09-19T03:17:46;29.23;;;18.42;;
38455;SDS011;24237;50.106;20.014;2023-09-19T03:20:13;30.02;;;18.15;;
38455;SDS011;24237;50.106;20.014;2023-09-19T03:22:42;24.55;;;18.67;;
38455;SDS011;24237;50.106;20.014;2023-09-19T03:25:08;24.60;;;17.63;;
38455;SDS011;24237;50.106;20.014;2023-09-19T03:27:35;30.27;;;19.77;;
38455;SDS011;24237;50.106;20.014;2023-09-19T03:30:00;26.95;;;17.98;;
38455;SDS011;24237;50.106;20.014;2023-09-19T03:32:30;28.30;;;18.63;;
38455;SDS011;24237;50.106;20.014;2023-09-19T03:34:56;27.98;;;18.67;;
38455;SDS011;24237;50.106;20.014;2023-09-19T03:37:21;29.00;;;18.45;;
38455;SDS011;24237;50.106;20.014;2023-09-19T03:39:47;21.85;;;18.00;;
38455;SDS011;24237;50.106;20.014;2023-09-19T03:42:13;23.90;;;17.50;;
38455;SDS011;24237;50.106;20.014;2023-09-19T03:44:44;26.35;;;18.20;;
38455;SDS011;24237;50.106;20.014;2023-09-19T03:47:09;29.83;;;17.92;;
38455;SDS011;24237;50.106;20.014;2023-09-19T03:49:35;23.23;;;17.15;;
38455;SDS011;24237;50.106;20.014;2023-09-19T03:52:01;21.83;;;16.67;;
38455;SDS011;24237;50.106;20.014;2023-09-19T03:54:27;24.55;;;17.85;;
38455;SDS011;24237;50.106;20.014;2023-09-19T03:56:53;21.67;;;16.20;;
38455;SDS011;24237;50.106;20.014;2023-09-19T03:59:18;20.83;;;16.80;;
38455;SDS011;24237;50.106;20.014;2023-09-19T04:01:44;22.55;;;16.95;;
38455;SDS011;24237;50.106;20.014;2023-09-19T04:04:10;22.58;;;17.38;;
38455;SDS011;24237;50.106;20.014;2023-09-19T04:09:03;22.35;;;16.80;;
38455;SDS011;24237;50.106;20.014;2023-09-19T04:11:29;24.85;;;17.90;;
38455;SDS011;24237;50.106;20.014;2023-09-19T04:13:56;27.42;;;18.05;;
38455;SDS011;24237;50.106;20.014;2023-09-19T04:16:22;25.38;;;17.92;;
38455;SDS011;24237;50.106;20.014;2023-09-19T04:18:48;23.52;;;17.60;;
38455;SDS011;24237;50.106;20.014;2023-09-19T04:21:13;22.42;;;17.00;;
38455;SDS011;24237;50.106;20.014;2023-09-19T04:23:39;24.17;;;17.50;;
38455;SDS011;24237;50.106;20.014;2023-09-19T04:26:04;25.83;;;18.60;;
38455;SDS011;24237;50.106;20.014;2023-09-19T04:28:30;24.83;;;17.83;;
38455;SDS011;24237;50.106;20.014;2023-09-19T04:30:57;30.52;;;20.40;;
38455;SDS011;24237;50.106;20.014;2023-09-19T04:33:24;27.60;;;19.10;;
38455;SDS011;24237;50.106;20.014;2023-09-19T04:35:52;28.98;;;17.52;;
38455;SDS011;24237;50.106;20.014;2023-09-19T04:38:18;29.23;;;17.85;;
38455;SDS011;24237;50.106;20.014;2023-09-19T04:40:44;26.73;;;20.00;;
38455;SDS011;24237;50.106;20.014;2023-09-19T04:43:10;24.77;;;18.73;;
38455;SDS011;24237;50.106;20.014;2023-09-19T04:45:36;26.27;;;19.55;;
38455;SDS011;24237;50.106;20.014;2023-09-19T04:48:04;28.73;;;20.08;;
38455;SDS011;24237;50.106;20.014;2023-09-19T04:50:31;28.65;;;19.98;;
38455;SDS011;24237;50.106;20.014;2023-09-19T04:52:59;24.90;;;17.55;;
38455;SDS011;24237;50.106;20.014;2023-09-19T04:55:25;25.08;;;19.40;;
38455;SDS011;24237;50.106;20.014;2023-09-19T04:57:51;29.85;;;20.08;;
38455;SDS011;24237;50.106;20.014;2023-09-19T05:00:20;33.47;;;23.27;;
38455;SDS011;24237;50.106;20.014;2023-09-19T05:02:50;31.90;;;23.33;;
38455;SDS011;24237;50.106;20.014;2023-09-19T05:05:16;29.45;;;20.63;;
38455;SDS011;24237;50.106;20.014;2023-09-19T05:07:43;29.08;;;19.85;;
38455;SDS011;24237;50.106;20.014;2023-09-19T05:10:09;25.90;;;18.55;;
38455;SDS011;24237;50.106;20.014;2023-09-19T05:12:36;27.77;;;20.08;;
38455;SDS011;24237;50.106;20.014;2023-09-19T05:15:06;24.02;;;17.15;;
38455;SDS011;24237;50.106;20.014;2023-09-19T05:17:32;21.40;;;16.80;;
38455;SDS011;24237;50.106;20.014;2023-09-19T05:19:59;22.15;;;16.92;;
38455;SDS011;24237;50.106;20.014;2023-09-19T05:22:28;25.50;;;18.02;;
38455;SDS011;24237;50.106;20.014;2023-09-19T05:24:54;28.85;;;17.77;;
38455;SDS011;24237;50.106;20.014;2023-09-19T05:27:20;25.27;;;17.88;;
38455;SDS011;24237;50.106;20.014;2023-09-19T05:29:46;31.48;;;18.75;;
38455;SDS011;24237;50.106;20.014;2023-09-19T05:32:14;24.67;;;19.05;;
38455;SDS011;24237;50.106;20.014;2023-09-19T05:34:40;27.25;;;19.15;;
38455;SDS011;24237;50.106;20.014;2023-09-19T05:37:06;34.42;;;20.05;;
38455;SDS011;24237;50.106;20.014;2023-09-19T05:39:32;26.65;;;18.38;;
38455;SDS011;24237;50.106;20.014;2023-09-19T05:41:58;25.58;;;18.00;;
38455;SDS011;24237;50.106;20.014;2023-09-19T05:44:25;27.20;;;18.33;;
38455;SDS011;24237;50.106;20.014;2023-09-19T05:46:51;26.48;;;18.70;;
38455;SDS011;24237;50.106;20.014;2023-09-19T05:49:17;26.55;;;19.65;;
38455;SDS011;24237;50.106;20.014;2023-09-19T05:51:43;35.72;;;20.85;;
38455;SDS011;24237;50.106;20.014;2023-09-19T05:54:08;30.30;;;20.05;;
38455;SDS011;24237;50.106;20.014;2023-09-19T05:56:36;28.70;;;20.90;;
38455;SDS011;24237;50.106;20.014;2023-09-19T05:59:01;29.80;;;20.55;;
38455;SDS011;24237;50.106;20.014;2023-09-19T06:01:28;30.60;;;20.38;;
38455;SDS011;24237;50.106;20.014;2023-09-19T06:03:56;27.02;;;19.63;;
38455;SDS011;24237;50.106;20.014;2023-09-19T06:06:21;29.08;;;20.45;;
38455;SDS011;24237;50.106;20.014;2023-09-19T06:08:47;41.00;;;21.88;;
38455;SDS011;24237;50.106;20.014;2023-09-19T06:11:15;29.35;;;22.17;;
38455;SDS011;24237;50.106;20.014;2023-09-19T06:13:41;35.13;;;23.52;;
38455;SDS011;24237;50.106;20.014;2023-09-19T06:16:06;44.25;;;25.55;;
38455;SDS011;24237;50.106;20.014;2023-09-19T06:18:32;27.92;;;20.17;;
38455;SDS011;24237;50.106;20.014;2023-09-19T06:20:58;28.67;;;20.30;;
38455;SDS011;24237;50.106;20.014;2023-09-19T06:23:24;28.80;;;20.23;;
38455;SDS011;24237;50.106;20.014;2023-09-19T06:25:52;32.47;;;21.92;;
38455;SDS011;24237;50.106;20.014;2023-09-19T06:28:18;30.15;;;20.50;;
38455;SDS011;24237;50.106;20.014;2023-09-19T06:30:48;28.92;;;21.85;;
38455;SDS011;24237;50.106;20.014;2023-09-19T06:33:14;30.15;;;21.10;;
38455;SDS011;24237;50.106;20.014;2023-09-19T06:38:11;38.30;;;19.75;;
38455;SDS011;24237;50.106;20.014;2023-09-19T06:40:38;34.10;;;21.58;;
38455;SDS011;24237;50.106;20.014;2023-09-19T06:43:04;26.10;;;19.50;;
38455;SDS011;24237;50.106;20.014;2023-09-19T06:45:30;27.20;;;19.27;;
38455;SDS011;24237;50.106;20.014;2023-09-19T06:47:57;30.42;;;19.33;;
38455;SDS011;24237;50.106;20.014;2023-09-19T06:50:22;37.10;;;22.50;;
38455;SDS011;24237;50.106;20.014;2023-09-19T06:52:49;35.38;;;22.63;;
38455;SDS011;24237;50.106;20.014;2023-09-19T06:55:20;30.60;;;20.98;;
38455;SDS011;24237;50.106;20.014;2023-09-19T06:57:48;28.48;;;19.35;;
38455;SDS011;24237;50.106;20.014;2023-09-19T07:00:14;26.35;;;19.50;;
38455;SDS011;24237;50.106;20.014;2023-09-19T07:02:45;36.03;;;18.27;;
38455;SDS011;24237;50.106;20.014;2023-09-19T07:05:19;22.67;;;16.70;;
38455;SDS011;24237;50.106;20.014;2023-09-19T07:07:45;26.35;;;19.77;;
38455;SDS011;24237;50.106;20.014;2023-09-19T07:10:10;23.20;;;17.52;;
38455;SDS011;24237;50.106;20.014;2023-09-19T07:15:03;26.02;;;18.33;;
38455;SDS011;24237;50.106;20.014;2023-09-19T07:17:30;25.15;;;17.67;;
38455;SDS011;24237;50.106;20.014;2023-09-19T07:19:58;25.75;;;17.52;;
38455;SDS011;24237;50.106;20.014;2023-09-19T07:22:23;25.60;;;18.23;;
38455;SDS011;24237;50.106;20.014;2023-09-19T07:24:50;22.77;;;17.33;;
38455;SDS011;24237;50.106;20.014;2023-09-19T07:27:17;25.58;;;18.98;;
38455;SDS011;24237;50.106;20.014;2023-09-19T07:29:42;27.95;;;17.83;;
38455;SDS011;24237;50.106;20.014;2023-09-19T07:32:08;25.45;;;19.23;;
38455;SDS011;24237;50.106;20.014;2023-09-19T07:34:35;25.23;;;19.30;;
38455;SDS011;24237;50.106;20.014;2023-09-19T07:37:00;27.15;;;18.92;;
38455;SDS011;24237;50.106;20.014;2023-09-19T07:39:27;24.95;;;18.40;;
38455;SDS011;24237;50.106;20.014;2023-09-19T07:41:53;28.35;;;18.90;;
38455;SDS011;24237;50.106;20.014;2023-09-19T07:44:19;22.05;;;17.67;;
38455;SDS011;24237;50.106;20.014;2023-09-19T07:46:45;24.58;;;18.55;;
38455;SDS011;24237;50.106;20.014;2023-09-19T07:49:10;26.80;;;19.50;;
38455;SDS011;24237;50.106;20.014;2023-09-19T07:51:36;21.65;;;17.30;;
38455;SDS011;24237;50.106;20.014;2023-09-19T07:54:02;23.98;;;17.80;;
38455;SDS011;24237;50.106;20.014;2023-09-19T07:56:27;26.85;;;17.75;;
38455;SDS011;24237;50.106;20.014;2023-09-19T07:58:53;20.58;;;16.10;;
38455;SDS011;24237;50.106;20.014;2023-09-19T08:01:19;20.20;;;15.32;;
38455;SDS011;24237;50.106;20.014;2023-09-19T08:03:44;19.50;;;14.90;;
38455;SDS011;24237;50.106;20.014;2023-09-19T08:06:10;18.67;;;15.43;;
38455;SDS011;24237;50.106;20.014;2023-09-19T08:08:36;15.23;;;12.82;;
38455;SDS011;24237;50.106;20.014;2023-09-19T08:11:02;17.45;;;13.95;;
38455;SDS011;24237;50.106;20.014;2023-09-19T08:13:36;15.57;;;12.05;;
38455;SDS011;24237;50.106;20.014;2023-09-19T08:16:06;18.13;;;13.82;;
38455;SDS011;24237;50.106;20.014;2023-09-19T08:18:31;18.73;;;13.90;;
38455;SDS011;24237;50.106;20.014;2023-09-19T08:20:58;18.97;;;14.23;;
38455;SDS011;24237;50.106;20.014;2023-09-19T08:23:25;19.08;;;15.15;;
38455;SDS011;24237;50.106;20.014;2023-09-19T08:25:55;22.70;;;15.32;;
38455;SDS011;24237;50.106;20.014;2023-09-19T08:28:22;18.50;;;14.00;;
38455;SDS011;24237;50.106;20.014;2023-09-19T08:30:49;22.38;;;16.23;;
38455;SDS011;24237;50.106;20.014;2023-09-19T08:33:15;23.60;;;15.85;;
38455;SDS011;24237;50.106;20.014;2023-09-19T08:35:41;28.13;;;17.60;;
38455;SDS011;24237;50.106;20.014;2023-09-19T08:38:08;21.38;;;17.20;;
38455;SDS011;24237;50.106;20.014;2023-09-19T08:40:38;22.98;;;17.20;;
38455;SDS011;24237;50.106;20.014;2023-09-19T08:43:06;22.35;;;16.30;;
38455;SDS011;24237;50.106;20.014;2023-09-19T08:45:32;22.25;;;15.15;;
38455;SDS011;24237;50.106;20.014;2023-09-19T08:50:43;20.17;;;15.35;;
38455;SDS011;24237;50.106;20.014;2023-09-19T08:53:16;23.83;;;16.38;;
38455;SDS011;24237;50.106;20.014;2023-09-19T08:55:53;26.02;;;15.35;;
38455;SDS011;24237;50.106;20.014;2023-09-19T08:58:21;24.50;;;15.02;;
38455;SDS011;24237;50.106;20.014;2023-09-19T09:00:52;23.50;;;15.45;;
38455;SDS011;24237;50.106;20.014;2023-09-19T09:03:19;22.63;;;16.00;;
38455;SDS011;24237;50.106;20.014;2023-09-19T09:05:46;26.13;;;15.52;;
38455;SDS011;24237;50.106;20.014;2023-09-19T09:08:13;23.17;;;14.30;;
38455;SDS011;24237;50.106;20.014;2023-09-19T09:10:39;18.83;;;13.82;;
38455;SDS011;24237;50.106;20.014;2023-09-19T09:13:05;22.27;;;15.23;;
38455;SDS011;24237;50.106;20.014;2023-09-19T09:15:31;22.77;;;15.80;;
38455;SDS011;24237;50.106;20.014;2023-09-19T09:18:01;29.63;;;15.27;;
38455;SDS011;24237;50.106;20.014;2023-09-19T09:20:28;23.77;;;17.77;;
38455;SDS011;24237;50.106;20.014;2023-09-19T09:22:54;22.02;;;16.05;;
38455;SDS011;24237;50.106;20.014;2023-09-19T09:25:46;23.02;;;17.73;;
38455;SDS011;24237;50.106;20.014;2023-09-19T09:28:22;30.65;;;19.45;;
38455;SDS011;24237;50.106;20.014;2023-09-19T09:30:53;35.55;;;22.83;;
38455;SDS011;24237;50.106;20.014;2023-09-19T09:33:19;30.75;;;22.95;;
38455;SDS011;24237;50.106;20.014;2023-09-19T09:38:46;37.38;;;24.55;;
38455;SDS011;24237;50.106;20.014;2023-09-19T09:41:20;34.38;;;24.08;;
38455;SDS011;24237;50.106;20.014;2023-09-19T09:44:11;38.60;;;25.13;;
38455;SDS011;24237;50.106;20.014;2023-09-19T09:46:42;40.28;;;24.63;;
38455;SDS011;24237;50.106;20.014;2023-09-19T09:49:28;39.40;;;22.55;;
38455;SDS011;24237;50.106;20.014;2023-09-19T09:52:06;28.80;;;21.33;;
38455;SDS011;24237;50.106;20.014;2023-09-19T09:54:34;29.98;;;19.98;;
38455;SDS011;24237;50.106;20.014;2023-09-19T09:57:07;29.77;;;19.23;;
38455;SDS011;24237;50.106;20.014;2023-09-19T10:00:00;27.45;;;18.38;;
38455;SDS011;24237;50.106;20.014;2023-09-19T10:02:37;20.83;;;16.20;;
38455;SDS011;24237;50.106;20.014;2023-09-19T10:05:19;22.45;;;15.70;;
38455;SDS011;24237;50.106;20.014;2023-09-19T10:07:45;24.80;;;14.68;;
38455;SDS011;24237;50.106;20.014;2023-09-19T10:13:07;23.50;;;14.57;;
38455;SDS011;24237;50.106;20.014;2023-09-19T10:15:37;18.05;;;10.90;;
38455;SDS011;24237;50.106;20.014;2023-09-19T10:18:06;20.98;;;12.05;;
38455;SDS011;24237;50.106;20.014;2023-09-19T10:20:35;15.80;;;11.07;;
38455;SDS011;24237;50.106;20.014;2023-09-19T10:23:09;14.43;;;10.18;;
38455;SDS011;24237;50.106;20.014;2023-09-19T10:25:43;20.88;;;10.02;;
38455;SDS011;24237;50.106;20.014;2023-09-19T10:28:12;14.27;;;8.95;;
38455;SDS011;24237;50.106;20.014;2023-09-19T10:30:46;12.02;;;8.60;;
38455;SDS011;24237;50.106;20.014;2023-09-19T10:33:27;16.88;;;8.68;;
38455;SDS011;24237;50.106;20.014;2023-09-19T10:36:01;12.95;;;8.38;;
38455;SDS011;24237;50.106;20.014;2023-09-19T10:38:30;8.30;;;7.13;;
38455;SDS011;24237;50.106;20.014;2023-09-19T10:40:58;15.27;;;8.35;;
38455;SDS011;24237;50.106;20.014;2023-09-19T10:43:26;13.45;;;7.03;;
38455;SDS011;24237;50.106;20.014;2023-09-19T10:45:56;10.43;;;6.82;;
38455;SDS011;24237;50.106;20.014;2023-09-19T10:48:25;9.88;;;7.00;;
38455;SDS011;24237;50.106;20.014;2023-09-19T10:53:24;12.00;;;7.65;;
38455;SDS011;24237;50.106;20.014;2023-09-19T10:55:52;14.52;;;8.63;;
38455;SDS011;24237;50.106;20.014;2023-09-19T10:58:28;12.63;;;8.20;;
38455;SDS011;24237;50.106;20.014;2023-09-19T11:00:58;16.10;;;8.85;;
38455;SDS011;24237;50.106;20.014;2023-09-19T11:03:43;13.82;;;9.68;;
38455;SDS011;24237;50.106;20.014;2023-09-19T11:06:10;18.10;;;8.82;;
38455;SDS011;24237;50.106;20.014;2023-09-19T11:08:51;14.48;;;9.50;;
38455;SDS011;24237;50.106;20.014;2023-09-19T11:11:38;25.50;;;10.00;;
38455;SDS011;24237;50.106;20.014;2023-09-19T11:30:31;17.95;;;10.07;;
38455;SDS011;24237;50.106;20.014;2023-09-19T11:36:09;15.10;;;9.30;;
38455;SDS011;24237;50.106;20.014;2023-09-19T11:43:46;14.60;;;10.35;;
38455;SDS011;24237;50.106;20.014;2023-09-19T11:46:16;17.00;;;11.35;;
38455;SDS011;24237;50.106;20.014;2023-09-19T11:48:50;12.60;;;10.48;;
38455;SDS011;24237;50.106;20.014;2023-09-19T11:51:23;15.18;;;11.00;;
38455;SDS011;24237;50.106;20.014;2023-09-19T11:53:52;17.15;;;10.15;;
38455;SDS011;24237;50.106;20.014;2023-09-19T11:56:25;14.75;;;10.68;;
38455;SDS011;24237;50.106;20.014;2023-09-19T11:58:54;14.70;;;10.40;;
38455;SDS011;24237;50.106;20.014;2023-09-19T12:01:24;15.52;;;11.13;;
38455;SDS011;24237;50.106;20.014;2023-09-19T12:03:58;12.15;;;10.68;;
38455;SDS011;24237;50.106;20.014;2023-09-19T12:06:27;17.05;;;11.13;;
38455;SDS011;24237;50.106;20.014;2023-09-19T12:08:54;15.27;;;10.27;;
38455;SDS011;24237;50.106;20.014;2023-09-19T12:11:24;13.10;;;10.13;;
38455;SDS011;24237;50.106;20.014;2023-09-19T12:13:53;16.45;;;11.32;;
38455;SDS011;24237;50.106;20.014;2023-09-19T12:16:23;14.93;;;10.57;;
38455;SDS011;24237;50.106;20.014;2023-09-19T12:18:50;18.30;;;11.25;;
38455;SDS011;24237;50.106;20.014;2023-09-19T12:21:29;17.88;;;11.10;;
38455;SDS011;24237;50.106;20.014;2023-09-19T12:24:05;15.15;;;10.98;;
38455;SDS011;24237;50.106;20.014;2023-09-19T12:26:45;14.60;;;10.55;;
38455;SDS011;24237;50.106;20.014;2023-09-19T12:29:18;17.80;;;10.20;;
38455;SDS011;24237;50.106;20.014;2023-09-19T12:34:26;21.30;;;10.55;;
38455;SDS011;24237;50.106;20.014;2023-09-19T12:37:11;19.45;;;10.77;;
38455;SDS011;24237;50.106;20.014;2023-09-19T12:39:41;19.52;;;10.90;;
38455;SDS011;24237;50.106;20.014;2023-09-19T12:42:09;16.15;;;10.88;;
38455;SDS011;24237;50.106;20.014;2023-09-19T12:44:40;23.83;;;11.32;;
38455;SDS011;24237;50.106;20.014;2023-09-19T12:47:11;16.65;;;10.18;;
38455;SDS011;24237;50.106;20.014;2023-09-19T12:52:39;16.67;;;11.02;;
38455;SDS011;24237;50.106;20.014;2023-09-19T12:55:05;14.82;;;11.70;;
38455;SDS011;24237;50.106;20.014;2023-09-19T12:57:36;15.98;;;11.93;;
38455;SDS011;24237;50.106;20.014;2023-09-19T13:00:05;15.40;;;11.40;;
38455;SDS011;24237;50.106;20.014;2023-09-19T13:02:31;14.07;;;11.65;;
38455;SDS011;24237;50.106;20.014;2023-09-19T13:04:57;16.48;;;12.55;;
38455;SDS011;24237;50.106;20.014;2023-09-19T13:07:42;18.15;;;13.55;;
38455;SDS011;24237;50.106;20.014;2023-09-19T13:10:12;15.15;;;12.88;;
38455;SDS011;24237;50.106;20.014;2023-09-19T13:12:40;16.98;;;13.15;;
38455;SDS011;24237;50.106;20.014;2023-09-19T13:15:12;18.10;;;13.48;;
38455;SDS011;24237;50.106;20.014;2023-09-19T13:17:48;18.20;;;13.73;;
38455;SDS011;24237;50.106;20.014;2023-09-19T13:20:21;16.63;;;13.10;;
38455;SDS011;24237;50.106;20.014;2023-09-19T13:22:53;17.80;;;11.85;;
38455;SDS011;24237;50.106;20.014;2023-09-19T13:25:23;18.00;;;11.98;;
38455;SDS011;24237;50.106;20.014;2023-09-19T13:27:50;15.63;;;11.40;;
38455;SDS011;24237;50.106;20.014;2023-09-19T13:30:21;11.93;;;10.63;;
38455;SDS011;24237;50.106;20.014;2023-09-19T13:35:14;13.90;;;10.07;;
38455;SDS011;24237;50.106;20.014;2023-09-19T13:37:40;13.75;;;9.68;;
38455;SDS011;24237;50.106;20.014;2023-09-19T13:40:13;11.10;;;9.10;;
38455;SDS011;24237;50.106;20.014;2023-09-19T13:42:40;13.57;;;9.50;;
38455;SDS011;24237;50.106;20.014;2023-09-19T13:45:06;15.53;;;10.63;;
38455;SDS011;24237;50.106;20.014;2023-09-19T13:47:34;12.23;;;9.25;;
38455;SDS011;24237;50.106;20.014;2023-09-19T13:50:03;14.70;;;9.15;;
38455;SDS011;24237;50.106;20.014;2023-09-19T13:52:29;12.33;;;9.03;;
38455;SDS011;24237;50.106;20.014;2023-09-19T13:54:55;12.80;;;8.60;;
38455;SDS011;24237;50.106;20.014;2023-09-19T13:57:22;13.80;;;8.40;;
38455;SDS011;24237;50.106;20.014;2023-09-19T13:59:48;15.70;;;8.85;;
38455;SDS011;24237;50.106;20.014;2023-09-19T14:02:14;12.93;;;8.55;;
38455;SDS011;24237;50.106;20.014;2023-09-19T14:04:43;14.82;;;8.50;;
38455;SDS011;24237;50.106;20.014;2023-09-19T14:07:09;10.15;;;7.95;;
38455;SDS011;24237;50.106;20.014;2023-09-19T14:09:35;12.43;;;8.07;;
38455;SDS011;24237;50.106;20.014;2023-09-19T14:12:02;10.95;;;8.35;;
38455;SDS011;24237;50.106;20.014;2023-09-19T14:14:27;12.65;;;8.23;;
38455;SDS011;24237;50.106;20.014;2023-09-19T14:16:53;13.65;;;8.30;;
38455;SDS011;24237;50.106;20.014;2023-09-19T14:19:19;14.23;;;8.60;;
38455;SDS011;24237;50.106;20.014;2023-09-19T14:21:45;19.92;;;10.57;;
38455;SDS011;24237;50.106;20.014;2023-09-19T14:24:16;13.88;;;9.07;;
38455;SDS011;24237;50.106;20.014;2023-09-19T14:26:42;11.10;;;7.93;;
38455;SDS011;24237;50.106;20.014;2023-09-19T14:29:08;16.25;;;7.70;;
38455;SDS011;24237;50.106;20.014;2023-09-19T14:31:36;10.30;;;6.35;;
38455;SDS011;24237;50.106;20.014;2023-09-19T14:34:03;12.02;;;6.00;;
38455;SDS011;24237;50.106;20.014;2023-09-19T14:36:30;9.15;;;5.68;;
38455;SDS011;24237;50.106;20.014;2023-09-19T14:38:56;9.13;;;5.57;;
38455;SDS011;24237;50.106;20.014;2023-09-19T14:41:24;15.90;;;5.80;;
38455;SDS011;24237;50.106;20.014;2023-09-19T14:43:53;11.63;;;5.88;;
38455;SDS011;24237;50.106;20.014;2023-09-19T14:46:22;10.25;;;5.30;;
38455;SDS011;24237;50.106;20.014;2023-09-19T14:48:50;10.43;;;5.53;;
38455;SDS011;24237;50.106;20.014;2023-09-19T14:51:16;15.20;;;6.63;;
38455;SDS011;24237;50.106;20.014;2023-09-19T14:53:44;7.35;;;6.00;;
38455;SDS011;24237;50.106;20.014;2023-09-19T14:56:11;10.98;;;6.78;;
38455;SDS011;24237;50.106;20.014;2023-09-19T14:58:37;17.17;;;8.27;;
38455;SDS011;24237;50.106;20.014;2023-09-19T15:01:10;11.02;;;6.28;;
38455;SDS011;24237;50.106;20.014;2023-09-19T15:03:37;11.10;;;7.18;;
38455;SDS011;24237;50.106;20.014;2023-09-19T15:06:05;14.60;;;8.45;;
38455;SDS011;24237;50.106;20.014;2023-09-19T15:08:35;13.45;;;7.78;;
38455;SDS011;24237;50.106;20.014;2023-09-19T15:11:06;11.15;;;6.75;;
38455;SDS011;24237;50.106;20.014;2023-09-19T15:13:33;11.30;;;6.88;;
38455;SDS011;24237;50.106;20.014;2023-09-19T15:15:59;11.82;;;6.78;;
38455;SDS011;24237;50.106;20.014;2023-09-19T15:18:27;12.95;;;7.20;;
38455;SDS011;24237;50.106;20.014;2023-09-19T15:21:02;12.02;;;7.45;;
38455;SDS011;24237;50.106;20.014;2023-09-19T15:23:37;9.55;;;7.43;;
38455;SDS011;24237;50.106;20.014;2023-09-19T15:26:04;15.05;;;7.40;;
38455;SDS011;24237;50.106;20.014;2023-09-19T15:28:31;13.35;;;8.63;;
38455;SDS011;24237;50.106;20.014;2023-09-19T15:31:08;11.82;;;8.02;;
38455;SDS011;24237;50.106;20.014;2023-09-19T15:33:37;12.77;;;7.65;;
38455;SDS011;24237;50.106;20.014;2023-09-19T15:38:30;9.10;;;6.53;;
38455;SDS011;24237;50.106;20.014;2023-09-19T15:40:56;12.90;;;6.65;;